Time;durP1;ratioP1;P1;durP2;ratioP2;P2;SDS_P1;SDS_P2;PMS_P1;PMS_P2;Temp;Humidity;BMP_temperature;BMP_pressure;BME280_temperature;BME280_humidity;BME280_pressure;Samples;Min_cycle;Max_cycle;Signal;HPM_P1;HPM_P2
2023/01/16 00:01:05;;;;;;;9.35;1.83;;;;;;;5.08;76.92;99488.94;6191283;23;20256;-70
2023/01/16 00:03:34;;;;;;;5.65;1.88;;;;;;;5.25;76.41;99490.22;6192086;23;20173;-70
2023/01/16 00:06:03;;;;;;;8.50;1.90;;;;;;;5.23;76.38;99494.94;6189842;23;20196;-69
2023/01/16 00:08:32;;;;;;;5.85;1.55;;;;;;;5.31;75.89;99473.31;6190388;23;20172;-71
2023/01/16 00:11:02;;;;;;;4.22;2.20;;;;;;;5.33;75.52;99476.59;6189974;23;20533;-68
2023/01/16 00:13:31;;;;;;;9.05;1.90;;;;;;;5.40;75.79;99482.00;6190153;23;20222;-70
2023/01/16 00:16:02;;;;;;;7.18;1.65;;;;;;;5.39;75.46;99474.97;6189762;23;20193;-69
2023/01/16 00:18:31;;;;;;;2.47;1.10;;;;;;;5.35;75.68;99473.72;6189169;23;20576;-70
2023/01/16 00:21:00;;;;;;;6.50;2.72;;;;;;;5.36;75.80;99481.59;6189197;23;20618;-70
2023/01/16 00:23:29;;;;;;;7.32;1.50;;;;;;;5.49;74.81;99486.97;6189677;23;20268;-71
2023/01/16 00:25:59;;;;;;;7.07;1.83;;;;;;;5.39;75.43;99472.28;6190058;23;20192;-71
2023/01/16 00:28:28;;;;;;;9.88;1.75;;;;;;;5.46;75.11;99484.72;6216676;23;20682;-70
2023/01/16 00:30:57;;;;;;;5.50;2.75;;;;;;;5.54;74.99;99487.19;6189814;23;20521;-71
2023/01/16 00:33:57;;;;;;;5.25;1.15;;;;;;;5.56;75.00;99484.31;6189846;23;20256;-70
2023/01/16 00:36:27;;;;;;;3.35;1.35;;;;;;;5.61;75.20;99480.00;6189484;23;20193;-70
2023/01/16 00:38:56;;;;;;;4.30;1.45;;;;;;;5.64;74.41;99487.63;6189468;23;20169;-69
2023/01/16 00:41:25;;;;;;;6.75;1.55;;;;;;;5.42;74.97;99486.13;6188939;23;20192;-69
2023/01/16 00:43:58;;;;;;;7.10;1.83;;;;;;;5.51;74.89;99487.59;6189066;23;20180;-69
2023/01/16 00:46:29;;;;;;;7.15;1.80;;;;;;;5.39;75.08;99485.72;6188943;23;20208;-70
2023/01/16 00:49:00;;;;;;;5.97;1.98;;;;;;;5.55;74.58;99480.81;6188918;23;20196;-71
2023/01/16 00:51:29;;;;;;;6.75;1.42;;;;;;;5.53;74.78;99482.03;6189264;23;20159;-71
2023/01/16 00:53:58;;;;;;;4.85;1.27;;;;;;;5.54;74.74;99487.19;6189529;23;20524;-69
2023/01/16 00:56:27;;;;;;;3.47;1.38;;;;;;;5.49;74.75;99486.97;6188778;23;20189;-70
2023/01/16 00:58:56;;;;;;;4.20;1.30;;;;;;;5.54;74.48;99494.41;6189269;23;20165;-69
2023/01/16 01:01:26;;;;;;;4.03;1.70;;;;;;;5.40;74.54;99493.56;6188826;23;20215;-71
2023/01/16 01:03:55;;;;;;;11.25;2.20;;;;;;;5.41;75.01;99484.50;6188489;23;20161;-71
2023/01/16 01:06:26;;;;;;;3.33;1.20;;;;;;;5.38;74.89;99492.09;6188415;23;20196;-70
2023/01/16 01:08:55;;;;;;;4.05;1.30;;;;;;;5.39;74.58;99497.25;6188853;23;20169;-69
2023/01/16 01:11:24;;;;;;;3.10;1.30;;;;;;;5.36;74.58;99497.69;6188416;23;20164;-70
2023/01/16 01:13:53;;;;;;;5.88;1.30;;;;;;;5.36;74.70;99492.31;6188354;23;20173;-69
2023/01/16 01:16:22;;;;;;;2.65;0.80;;;;;;;5.28;74.86;99494.38;6188483;23;20650;-71
2023/01/16 01:18:52;;;;;;;2.33;1.00;;;;;;;5.37;74.71;99493.97;6188447;23;20179;-70
2023/01/16 01:21:21;;;;;;;3.25;1.10;;;;;;;5.22;75.06;99496.81;6188452;23;20195;-70
2023/01/16 01:23:51;;;;;;;3.97;1.40;;;;;;;5.15;75.24;99495.97;6188506;23;20570;-70
2023/01/16 01:26:21;;;;;;;3.00;1.30;;;;;;;5.16;75.15;99494.94;6188712;23;20780;-71
2023/01/16 01:28:50;;;;;;;4.00;1.10;;;;;;;5.05;75.94;99495.50;6188554;23;20176;-70
2023/01/16 01:31:19;;;;;;;1.70;0.98;;;;;;;5.06;75.85;99485.63;6188782;23;20165;-71
2023/01/16 01:33:48;;;;;;;4.32;1.10;;;;;;;5.06;75.21;99485.63;6215250;23;20167;-71
2023/01/16 01:36:18;;;;;;;3.28;0.80;;;;;;;4.82;76.43;99485.13;6188331;23;20188;-69
2023/01/16 01:38:49;;;;;;;2.05;1.33;;;;;;;4.68;76.87;99482.56;6188606;23;20247;-70
2023/01/16 01:41:20;;;;;;;2.72;1.55;;;;;;;4.71;77.09;99480.31;6215151;23;20254;-70
2023/01/16 01:43:52;;;;;;;4.30;1.05;;;;;;;4.59;77.39;99479.22;6188691;23;20184;-70
2023/01/16 01:46:26;;;;;;;1.85;1.25;;;;;;;4.50;78.15;99491.13;6188441;23;20588;-70
2023/01/16 01:48:58;;;;;;;2.95;1.45;;;;;;;4.43;78.18;99482.22;6188357;23;20207;-69
2023/01/16 01:51:31;;;;;;;1.77;1.17;;;;;;;4.34;78.59;99480.72;6188227;23;20675;-69
2023/01/16 01:54:04;;;;;;;3.90;1.25;;;;;;;4.50;78.57;99480.41;6214811;23;20323;-70
2023/01/16 01:56:43;;;;;;;2.45;0.93;;;;;;;4.54;78.12;99476.31;6188719;23;20198;-70
2023/01/16 01:59:17;;;;;;;4.45;1.25;;;;;;;4.61;77.95;99477.16;6189172;23;20670;-70
2023/01/16 02:01:46;;;;;;;1.42;0.95;;;;;;;4.65;77.59;99472.22;6188853;23;20641;-71
2023/01/16 02:04:20;;;;;;;2.45;1.23;;;;;;;4.71;77.62;99483.00;6188990;23;20169;-71
2023/01/16 02:06:52;;;;;;;3.42;1.13;;;;;;;4.75;77.38;99475.38;6189191;23;20168;-70
2023/01/16 02:09:22;;;;;;;1.33;0.80;;;;;;;4.73;77.44;99464.88;6189633;23;20483;-71
2023/01/16 02:11:55;;;;;;;1.70;0.80;;;;;;;4.89;76.70;99470.91;6215529;23;20160;-71
2023/01/16 02:14:28;;;;;;;3.13;0.93;;;;;;;4.84;76.59;99465.31;6213512;23;20240;-70
2023/01/16 02:20:07;;;;;;;2.58;0.73;;;;;;;4.74;77.12;99469.19;6188395;23;20161;-68
2023/01/16 02:23:24;;;;;;;13.18;1.30;;;;;;;4.86;76.93;99457.91;6189055;23;20242;-71
2023/01/16 02:26:26;;;;;;;2.13;1.00;;;;;;;4.97;76.47;99462.69;6106192;23;20702;-70
2023/01/16 02:29:32;;;;;;;3.63;1.27;;;;;;;4.89;76.77;99466.34;6188640;23;20176;-69
2023/01/16 02:32:11;;;;;;;1.10;0.80;;;;;;;4.79;76.95;99457.88;6169050;23;20225;-70
2023/01/16 02:34:52;;;;;;;1.90;1.20;;;;;;;4.81;76.93;99461.19;6188348;23;20165;-71
2023/01/16 02:37:33;;;;;;;3.83;0.88;;;;;;;4.76;77.33;99464.47;6188498;23;20279;-69
2023/01/16 02:40:13;;;;;;;1.25;0.77;;;;;;;4.68;78.02;99461.13;6188415;23;20161;-69
2023/01/16 02:42:46;;;;;;;2.28;1.30;;;;;;;4.80;77.21;99460.34;6188375;23;20213;-71
2023/01/16 02:45:22;;;;;;;2.88;1.00;;;;;;;4.77;77.75;99449.22;6188071;23;20242;-69
2023/01/16 02:48:00;;;;;;;2.25;1.00;;;;;;;4.78;77.58;99440.97;6187902;23;20176;-70
2023/01/16 02:50:37;;;;;;;1.65;1.00;;;;;;;4.83;77.44;99440.38;6188521;23;20165;-70
2023/01/16 02:53:15;;;;;;;3.20;0.85;;;;;;;4.77;78.03;99443.84;6217230;23;20156;-72
2023/01/16 02:55:51;;;;;;;1.70;1.27;;;;;;;4.75;77.80;99436.00;6193406;23;20193;-70
2023/01/16 02:58:21;;;;;;;3.35;1.02;;;;;;;4.71;77.77;99428.56;6192246;23;20504;-71
2023/01/16 03:00:52;;;;;;;1.45;1.00;;;;;;;4.81;77.73;99437.88;6190779;23;20165;-71
2023/01/16 03:03:40;;;;;;;2.35;1.00;;;;;;;4.90;77.26;99425.13;6191327;23;20176;-71
2023/01/16 03:06:37;;;;;;;2.30;0.70;;;;;;;4.92;77.16;99419.56;6190021;23;20208;-70
2023/01/16 03:09:32;;;;;;;2.60;1.00;;;;;;;4.86;77.47;99407.81;6176599;23;20227;-71
2023/01/16 03:12:17;;;;;;;1.23;0.80;;;;;;;4.80;77.45;99401.38;6190919;23;20242;-71
2023/01/16 03:14:54;;;;;;;2.55;0.95;;;;;;;4.65;77.96;99408.75;6217027;23;20209;-71
2023/01/16 03:17:37;;;;;;;1.85;0.95;;;;;;;4.54;78.82;99400.47;6190001;23;20167;-70
2023/01/16 03:20:21;;;;;;;1.52;0.90;;;;;;;4.29;79.46;99408.19;6191090;23;20169;-70
2023/01/16 03:22:56;;;;;;;3.67;1.20;;;;;;;4.25;80.46;99407.75;6189967;23;20510;-70
2023/01/16 03:25:34;;;;;;;3.78;0.90;;;;;;;4.13;80.85;99400.44;6189602;23;20521;-71
2023/01/16 03:28:11;;;;;;;1.58;1.00;;;;;;;4.29;80.08;99395.63;6192776;23;20203;-70
2023/01/16 03:30:51;;;;;;;1.83;1.40;;;;;;;4.19;80.86;99397.00;6218930;23;20155;-71
2023/01/16 03:33:31;;;;;;;1.75;1.13;;;;;;;4.34;80.41;99400.38;6192157;23;20650;-71
2023/01/16 03:36:07;;;;;;;3.30;0.88;;;;;;;4.42;80.29;99388.66;6192375;23;20192;-71
2023/01/16 03:38:39;;;;;;;2.55;1.17;;;;;;;4.40;80.21;99391.56;6192333;23;20157;-71
2023/01/16 03:41:12;;;;;;;3.33;1.35;;;;;;;4.30;80.43;99383.06;6191726;23;20165;-69
2023/01/16 03:43:44;;;;;;;1.95;1.08;;;;;;;4.32;81.00;99379.16;6191741;23;20330;-70
2023/01/16 03:46:16;;;;;;;4.03;1.48;;;;;;;4.30;79.86;99380.38;6191248;23;20192;-69
2023/01/16 03:48:49;;;;;;;1.98;0.85;;;;;;;4.18;80.78;99380.09;6190711;23;20267;-69
2023/01/16 03:51:24;;;;;;;2.00;1.10;;;;;;;4.26;81.05;99379.94;6191607;23;20181;-71
2023/01/16 03:54:02;;;;;;;1.92;1.10;;;;;;;4.36;79.94;99372.34;6191955;23;20160;-70
2023/01/16 03:56:37;;;;;;;1.60;1.20;;;;;;;4.20;80.60;99371.88;6191414;23;20196;-70
2023/01/16 03:59:07;;;;;;;1.55;1.00;;;;;;;4.07;81.30;99369.94;6191838;23;20174;-70
2023/01/16 04:01:41;;;;;;;1.38;0.90;;;;;;;4.10;81.41;99372.25;6191146;23;20176;-70
2023/01/16 04:04:16;;;;;;;2.10;1.10;;;;;;;4.13;81.26;99369.16;6190468;23;20180;-70
2023/01/16 04:06:54;;;;;;;6.78;1.10;;;;;;;4.12;81.44;99364.00;6190218;23;20724;-70
2023/01/16 04:09:30;;;;;;;3.83;1.50;;;;;;;4.25;80.98;99361.41;6191807;23;20161;-71
2023/01/16 04:12:01;;;;;;;2.08;0.82;;;;;;;4.18;80.91;99358.69;6192740;23;20247;-70
2023/01/16 04:14:32;;;;;;;6.70;1.30;;;;;;;4.19;81.08;99354.16;6224200;23;20168;-70
2023/01/16 04:17:02;;;;;;;2.92;1.42;;;;;;;4.14;81.03;99346.72;6196919;23;20161;-69
2023/01/16 04:19:33;;;;;;;1.85;0.88;;;;;;;4.17;81.28;99340.13;6197895;23;20165;-70
2023/01/16 04:22:08;;;;;;;1.92;1.23;;;;;;;4.06;81.58;99335.38;6199712;23;20181;-70
2023/01/16 04:24:38;;;;;;;1.90;0.82;;;;;;;4.03;81.82;99325.03;6199399;23;20223;-69
2023/01/16 04:27:07;;;;;;;2.30;1.65;;;;;;;3.97;82.30;99320.50;6199495;23;20188;-70
2023/01/16 04:29:36;;;;;;;4.20;1.58;;;;;;;3.89;82.65;99311.59;6200362;23;20482;-70
2023/01/16 04:32:05;;;;;;;3.53;1.77;;;;;;;3.74;83.79;99318.91;6198931;23;20168;-70
2023/01/16 04:34:34;;;;;;;3.15;1.13;;;;;;;3.72;83.69;99323.66;6196340;23;20617;-70
2023/01/16 04:37:03;;;;;;;1.63;1.05;;;;;;;3.82;83.60;99309.91;6195737;23;20180;-70
2023/01/16 04:39:34;;;;;;;2.28;1.30;;;;;;;3.79;83.68;99307.63;6190180;23;20517;-70
2023/01/16 04:42:03;;;;;;;3.30;1.40;;;;;;;3.61;84.77;99297.44;6189552;23;20179;-70
2023/01/16 04:44:32;;;;;;;3.85;1.45;;;;;;;3.55;84.42;99308.91;6189555;23;20188;-69
2023/01/16 04:47:01;;;;;;;1.50;1.30;;;;;;;3.64;85.21;99296.19;6189651;23;20184;-70
2023/01/16 04:49:30;;;;;;;4.55;2.55;;;;;;;3.61;84.86;99292.09;6193740;23;20180;-70
2023/01/16 04:51:59;;;;;;;4.55;1.30;;;;;;;3.60;85.23;99286.91;6191575;23;20520;-71
2023/01/16 04:54:28;;;;;;;2.60;1.13;;;;;;;3.57;85.52;99280.13;6188909;23;20208;-70
2023/01/16 04:56:58;;;;;;;2.38;1.00;;;;;;;3.53;85.60;99278.88;6189173;23;20179;-70
2023/01/16 04:59:28;;;;;;;4.22;1.55;;;;;;;3.43;86.37;99284.56;6215779;23;20229;-70
2023/01/16 05:01:57;;;;;;;2.08;1.20;;;;;;;3.40;86.73;99284.94;6188805;23;20168;-70
2023/01/16 05:04:26;;;;;;;2.38;1.27;;;;;;;3.50;86.22;99282.75;6188710;23;20185;-69
2023/01/16 05:06:55;;;;;;;3.00;1.35;;;;;;;3.47;86.67;99287.66;6188640;23;20192;-70
2023/01/16 05:09:24;;;;;;;4.70;2.08;;;;;;;3.59;86.19;99280.75;6188740;23;20512;-69
2023/01/16 05:11:53;;;;;;;2.65;0.93;;;;;;;3.67;85.77;99282.44;6188953;23;20172;-69
2023/01/16 05:14:24;;;;;;;1.90;1.20;;;;;;;3.57;85.61;99274.78;6189142;23;20169;-71
2023/01/16 05:16:53;;;;;;;3.70;1.35;;;;;;;3.60;85.98;99278.91;6189166;23;20179;-71
2023/01/16 05:19:22;;;;;;;3.72;1.10;;;;;;;3.66;86.03;99276.28;6189309;23;20172;-70
2023/01/16 05:21:51;;;;;;;3.05;1.30;;;;;;;3.69;86.17;99278.53;6189476;23;20283;-69
2023/01/16 05:24:20;;;;;;;1.48;1.13;;;;;;;3.72;85.00;99278.16;6189326;23;20185;-69
2023/01/16 05:26:51;;;;;;;4.03;1.15;;;;;;;3.77;84.47;99265.03;6189231;23;20195;-70
2023/01/16 05:29:21;;;;;;;2.20;1.20;;;;;;;3.66;85.22;99262.91;6188970;23;20172;-70
2023/01/16 05:31:51;;;;;;;3.35;1.38;;;;;;;3.67;84.93;99267.22;6189218;23;20579;-69
2023/01/16 05:34:20;;;;;;;2.33;0.93;;;;;;;3.67;84.62;99267.22;6190464;23;20243;-70
2023/01/16 05:36:49;;;;;;;7.00;3.40;;;;;;;3.91;84.55;99257.88;6188822;23;20188;-70
2023/01/16 05:39:18;;;;;;;2.47;1.20;;;;;;;3.90;84.00;99253.53;6188373;23;20172;-69
2023/01/16 05:41:47;;;;;;;5.15;1.25;;;;;;;3.87;84.03;99254.75;6188760;23;20203;-71
2023/01/16 05:44:16;;;;;;;1.27;1.08;;;;;;;3.99;82.78;99254.19;6188477;23;20243;-69
2023/01/16 05:46:45;;;;;;;6.30;2.20;;;;;;;3.97;82.84;99245.56;6188556;23;20280;-69
2023/01/16 05:49:15;;;;;;;1.98;1.25;;;;;;;3.97;83.10;99237.53;6188580;23;20215;-70
2023/01/16 05:51:44;;;;;;;6.78;1.98;;;;;;;4.02;82.49;99243.13;6188397;23;20161;-69
2023/01/16 05:54:13;;;;;;;6.88;1.60;;;;;;;4.03;81.98;99245.56;6188511;23;20559;-70
2023/01/16 05:56:43;;;;;;;3.55;1.67;;;;;;;4.05;82.64;99245.38;6188477;23;20197;-70
2023/01/16 05:59:12;;;;;;;3.10;1.10;;;;;;;3.98;82.42;99241.84;6188431;23;20610;-70
2023/01/16 06:01:41;;;;;;;8.77;1.40;;;;;;;4.06;82.21;99241.69;6188494;23;20199;-72
2023/01/16 06:04:10;;;;;;;1.98;1.23;;;;;;;4.08;81.69;99235.09;6188570;23;20255;-71
2023/01/16 06:06:41;;;;;;;3.30;1.65;;;;;;;4.15;81.83;99229.75;6188480;23;20251;-71
2023/01/16 06:09:10;;;;;;;4.45;1.20;;;;;;;4.18;81.04;99237.38;6189925;23;20252;-71
2023/01/16 06:11:39;;;;;;;5.60;1.90;;;;;;;4.23;80.47;99226.91;6189218;23;20169;-70
2023/01/16 06:14:08;;;;;;;2.17;1.40;;;;;;;4.28;81.00;99235.16;6189319;23;20539;-69
2023/01/16 06:16:37;;;;;;;7.18;1.50;;;;;;;4.19;80.74;99229.16;6188865;23;20195;-69
2023/01/16 06:19:06;;;;;;;2.42;1.55;;;;;;;4.24;81.05;99228.56;6188381;23;20161;-69
2023/01/16 06:21:35;;;;;;;2.00;1.45;;;;;;;4.19;80.78;99217.63;6188401;23;20192;-70
2023/01/16 06:24:06;;;;;;;5.72;2.33;;;;;;;4.32;80.74;99212.28;6188362;23;20189;-69
2023/01/16 06:26:35;;;;;;;3.35;1.80;;;;;;;4.33;80.43;99217.47;6188216;23;20267;-69
2023/01/16 06:29:04;;;;;;;1.65;1.08;;;;;;;4.23;79.86;99213.50;6188456;23;20173;-70
2023/01/16 06:31:33;;;;;;;2.58;1.45;;;;;;;4.18;80.07;99210.63;6188443;23;20613;-70
2023/01/16 06:34:02;;;;;;;2.38;1.45;;;;;;;4.18;80.25;99203.41;6188910;23;20601;-69
2023/01/16 06:36:31;;;;;;;3.45;1.73;;;;;;;4.10;80.54;99211.63;6188104;23;20188;-70
2023/01/16 06:39:00;;;;;;;2.15;1.75;;;;;;;4.13;80.69;99213.91;6187894;23;20219;-70
2023/01/16 06:41:30;;;;;;;2.60;1.42;;;;;;;4.27;79.70;99212.06;6188236;23;20625;-70
2023/01/16 06:44:00;;;;;;;3.80;2.20;;;;;;;4.25;80.38;99208.78;6188219;23;20271;-71
2023/01/16 06:46:29;;;;;;;7.13;1.95;;;;;;;4.20;79.89;99208.56;6187661;23;20188;-69
2023/01/16 06:48:58;;;;;;;2.05;1.48;;;;;;;4.26;79.69;99195.19;6188266;23;20505;-69
2023/01/16 06:51:27;;;;;;;2.15;1.23;;;;;;;4.24;80.64;99199.94;6188144;23;20692;-71
2023/01/16 06:53:56;;;;;;;4.20;1.73;;;;;;;4.24;80.50;99199.09;6188479;23;20504;-69
2023/01/16 06:56:25;;;;;;;5.80;2.13;;;;;;;4.14;81.10;99201.34;6188090;23;20212;-70
2023/01/16 06:58:55;;;;;;;3.63;1.67;;;;;;;4.12;81.15;99198.03;6182823;23;20189;-72
2023/01/16 07:01:24;;;;;;;3.92;2.70;;;;;;;4.26;81.28;99189.03;6184355;23;20613;-71
2023/01/16 07:03:54;;;;;;;4.38;2.17;;;;;;;4.24;80.44;99194.56;6185263;23;20169;-70
2023/01/16 07:06:23;;;;;;;6.57;2.80;;;;;;;4.17;80.75;99190.22;6185316;23;20189;-69
2023/01/16 07:08:53;;;;;;;2.47;2.15;;;;;;;4.17;80.46;99190.22;6185618;23;20498;-70
2023/01/16 07:11:23;;;;;;;2.28;1.80;;;;;;;4.12;80.80;99188.16;6185985;23;20618;-71
2023/01/16 07:22:34;;;;;;;4.05;2.10;;;;;;;4.21;81.21;99188.81;6186299;23;20170;-72
2023/01/16 07:22:38;;;;;;;3.47;2.05;;;;;;;4.17;80.57;99184.88;6186927;23;20162;-70
2023/01/16 07:25:11;;;;;;;2.00;1.35;;;;;;;4.11;80.93;99186.53;6186067;23;20272;-72
2023/01/16 07:27:41;;;;;;;3.90;2.17;;;;;;;4.26;80.57;99192.50;6186126;23;20169;-71
2023/01/16 07:30:14;;;;;;;5.63;1.83;;;;;;;4.27;80.04;99179.94;6187025;23;20685;-71
2023/01/16 07:32:46;;;;;;;5.68;1.98;;;;;;;4.18;79.85;99170.44;6187597;23;20154;-70
2023/01/16 07:35:15;;;;;;;5.50;2.22;;;;;;;4.20;80.62;99163.06;6186116;23;20737;-70
2023/01/16 07:37:45;;;;;;;4.20;1.75;;;;;;;4.09;80.28;99171.69;6186256;23;20170;-71
2023/01/16 07:40:15;;;;;;;3.88;2.35;;;;;;;4.10;80.34;99174.16;6188148;23;20150;-71
2023/01/16 07:42:44;;;;;;;4.68;2.10;;;;;;;4.15;80.21;99170.88;6185904;23;20315;-71
2023/01/16 07:45:13;;;;;;;4.25;3.10;;;;;;;4.33;79.84;99173.78;6186308;23;20197;-70
2023/01/16 07:47:43;;;;;;;7.25;2.65;;;;;;;4.19;80.45;99172.94;6185819;23;20592;-73
2023/01/16 07:50:12;;;;;;;2.95;1.92;;;;;;;4.01;80.79;99170.03;6186489;23;20246;-71
2023/01/16 07:52:42;;;;;;;4.20;1.98;;;;;;;4.06;80.10;99156.84;6185902;23;20174;-72
2023/01/16 07:55:11;;;;;;;6.00;2.55;;;;;;;3.93;81.01;99162.16;6186204;23;20665;-72
2023/01/16 07:57:41;;;;;;;4.43;2.00;;;;;;;3.82;81.22;99150.22;6188039;23;20169;-72
2023/01/16 08:00:11;;;;;;;14.45;2.20;;;;;;;3.97;81.54;99151.91;6186340;23;20517;-72
2023/01/16 08:02:41;;;;;;;2.67;2.03;;;;;;;4.00;80.88;99143.44;6186267;23;20173;-71
2023/01/16 08:05:12;;;;;;;3.55;1.85;;;;;;;4.09;80.42;99144.91;6186094;23;20208;-72
2023/01/16 08:07:41;;;;;;;4.95;1.90;;;;;;;4.08;79.76;99143.25;6186543;23;20172;-70
2023/01/16 08:10:11;;;;;;;2.63;1.88;;;;;;;3.99;80.40;99139.13;6186932;23;20169;-72
2023/01/16 08:12:40;;;;;;;3.38;1.70;;;;;;;4.01;80.29;99139.75;6186554;23;20250;-71
2023/01/16 08:15:10;;;;;;;4.03;2.25;;;;;;;4.05;80.05;99132.97;6188767;23;20182;-71
2023/01/16 08:17:40;;;;;;;5.85;2.10;;;;;;;4.10;80.22;99134.00;6188153;23;20629;-69
2023/01/16 08:20:13;;;;;;;2.70;2.28;;;;;;;4.24;79.41;99129.50;6187868;23;20165;-70
2023/01/16 08:22:46;;;;;;;4.85;1.45;;;;;;;4.40;78.98;99130.97;6192734;23;20567;-72
2023/01/16 08:25:16;;;;;;;2.58;1.85;;;;;;;4.47;78.13;99113.84;6191458;23;20284;-70
2023/01/16 08:27:45;;;;;;;1.80;1.30;;;;;;;4.37;77.92;99113.44;6190784;23;20164;-71
2023/01/16 08:30:16;;;;;;;7.05;1.45;;;;;;;4.45;77.21;99115.94;6189374;23;20168;-70
2023/01/16 08:32:47;;;;;;;5.70;2.33;;;;;;;4.52;77.25;99102.50;6188741;23;20618;-70
2023/01/16 08:35:22;;;;;;;7.80;2.08;;;;;;;4.54;77.16;99095.94;6184823;23;20195;-71
2023/01/16 08:37:51;;;;;;;5.78;2.17;;;;;;;4.65;76.67;99095.28;6184621;23;20482;-71
2023/01/16 08:40:21;;;;;;;10.38;2.25;;;;;;;4.53;77.12;99094.28;6184368;23;20173;-71
2023/01/16 08:51:25;;;;;;;2.38;1.50;;;;;;;4.55;76.25;99064.63;6184401;23;20158;-70
2023/01/16 08:53:56;;;;;;;2.70;1.20;;;;;;;4.51;76.43;99053.47;6184394;23;20212;-73
2023/01/16 08:56:26;;;;;;;1.95;1.67;;;;;;;4.57;76.34;99051.81;6184830;23;20189;-73
2023/01/16 08:58:55;;;;;;;4.50;1.48;;;;;;;4.67;75.80;99055.72;6184451;23;20170;-70
2023/01/16 09:01:25;;;;;;;3.40;1.58;;;;;;;4.63;75.63;99051.81;6184392;23;20174;-71
2023/01/16 09:03:54;;;;;;;3.40;1.60;;;;;;;4.78;75.29;99047.06;6186042;23;20236;-72
2023/01/16 09:06:25;;;;;;;2.72;2.03;;;;;;;4.86;75.21;99045.16;6183972;23;20734;-73
2023/01/16 09:08:54;;;;;;;2.10;1.40;;;;;;;4.91;74.48;99034.66;6183888;23;20162;-71
2023/01/16 09:14:10;;;;;;;2.20;1.20;;;;;;;5.09;73.67;99019.53;6184605;23;20518;-70
2023/01/16 09:16:53;;;;;;;4.55;3.00;;;;;;;5.11;73.17;99017.47;6184213;23;20189;-70
2023/01/16 09:19:22;;;;;;;8.77;2.10;;;;;;;5.27;72.91;99016.16;6184126;23;20205;-71
2023/01/16 09:21:53;;;;;;;1.92;1.48;;;;;;;5.21;72.57;99008.97;6183958;23;20173;-71
2023/01/16 09:24:22;;;;;;;2.90;1.48;;;;;;;5.20;72.40;99005.47;6183876;23;20161;-70
2023/01/16 09:26:51;;;;;;;3.03;1.30;;;;;;;5.22;72.59;99011.44;6184264;23;20569;-71
2023/01/16 09:29:20;;;;;;;4.70;1.98;;;;;;;5.34;72.01;99005.38;6184049;23;20521;-69
2023/01/16 09:31:49;;;;;;;6.20;2.67;;;;;;;5.40;71.76;99010.72;6183770;23;20196;-71
2023/01/16 09:34:18;;;;;;;2.53;1.45;;;;;;;5.37;71.40;99000.44;6184234;23;20161;-70
2023/01/16 09:36:47;;;;;;;4.25;1.70;;;;;;;5.49;71.59;99004.06;6183735;23;20196;-71
2023/01/16 09:39:18;;;;;;;1.83;1.20;;;;;;;5.51;71.44;98999.34;6183853;23;20180;-71
2023/01/16 09:44:50;;;;;;;3.25;1.60;;;;;;;5.49;71.10;98998.72;6183807;23;20217;-72
2023/01/16 09:47:25;;;;;;;6.95;2.38;;;;;;;5.51;70.41;98985.09;6183758;23;20211;-70
2023/01/16 09:50:02;;;;;;;2.95;1.67;;;;;;;5.43;70.71;98977.28;6183943;23;20655;-71
2023/01/16 09:58:37;;;;;;;3.15;2.08;;;;;;;5.65;69.92;98967.88;6183955;23;20174;-72
2023/01/16 10:01:10;;;;;;;6.75;4.00;;;;;;;5.69;69.90;98950.28;6183770;23;20614;-72
2023/01/16 10:03:42;;;;;;;3.83;1.90;;;;;;;5.76;69.45;98947.56;6185380;23;20162;-71
2023/01/16 10:06:21;;;;;;;2.65;1.65;;;;;;;5.79;69.03;98945.25;6183462;23;20196;-71
2023/01/16 10:09:09;;;;;;;1.85;1.67;;;;;;;5.94;68.99;98950.34;6185459;23;20156;-70
2023/01/16 10:11:51;;;;;;;5.97;2.58;;;;;;;5.86;68.49;98942.50;6183762;23;20248;-71
2023/01/16 10:14:55;;;;;;;6.75;2.60;;;;;;;5.89;68.55;98928.69;6183732;23;20249;-71
2023/01/16 10:17:31;;;;;;;3.40;1.23;;;;;;;5.87;68.41;98917.34;6183725;23;20172;-72
2023/01/16 10:20:28;;;;;;;3.65;1.65;;;;;;;6.07;68.13;98912.63;6183510;23;20158;-74
2023/01/16 10:23:08;;;;;;;4.90;1.65;;;;;;;6.26;67.14;98916.97;6184405;23;20165;-73
2023/01/16 10:25:46;;;;;;;3.90;2.17;;;;;;;6.32;67.05;98907.22;6184879;23;20279;-71
2023/01/16 10:28:28;;;;;;;16.92;11.70;;;;;;;6.47;66.99;98900.44;6184683;23;20564;-72
2023/01/16 10:31:03;;;;;;;3.75;1.42;;;;;;;6.52;66.07;98895.22;6185161;23;20513;-71
2023/01/16 10:33:36;;;;;;;2.28;1.33;;;;;;;6.57;65.60;98893.72;6187888;23;20534;-72
2023/01/16 10:36:25;;;;;;;6.32;1.92;;;;;;;6.63;64.66;98884.75;6185804;23;20260;-73
2023/01/16 10:38:57;;;;;;;2.17;1.45;;;;;;;6.62;65.08;98880.41;6183555;23;20165;-70
2023/01/16 10:50:10;;;;;;;4.03;2.75;;;;;;;6.85;63.49;98859.84;6183593;23;20185;-71
2023/01/16 10:52:40;;;;;;;2.15;1.02;;;;;;;6.77;63.06;98862.03;6183282;23;20162;-71
2023/01/16 10:55:11;;;;;;;2.10;1.20;;;;;;;6.73;62.95;98856.28;6183094;23;20189;-71
2023/01/16 10:57:49;;;;;;;2.85;1.35;;;;;;;6.83;62.84;98851.19;6183099;23;20204;-72
2023/01/16 11:00:24;;;;;;;2.63;1.00;;;;;;;6.81;62.43;98841.72;6183323;23;20195;-71
2023/01/16 11:02:55;;;;;;;3.25;1.00;;;;;;;6.74;62.95;98832.91;6183286;23;20172;-71
2023/01/16 11:05:29;;;;;;;3.22;1.63;;;;;;;6.92;62.64;98822.94;6183199;23;20193;-72
2023/01/16 11:08:07;;;;;;;4.38;1.60;;;;;;;7.05;61.92;98813.88;6183136;23;20185;-71
2023/01/16 11:10:36;;;;;;;3.83;1.42;;;;;;;7.11;61.78;98809.44;6183333;23;20157;-71
2023/01/16 11:18:50;;;;;;;4.18;1.65;;;;;;;7.39;60.65;98796.16;6182711;23;20173;-71
2023/01/16 11:21:26;;;;;;;4.40;1.13;;;;;;;7.27;60.16;98787.22;6184957;23;20181;-71
2023/01/16 11:23:59;;;;;;;2.95;1.10;;;;;;;7.08;60.28;98783.81;6183423;23;20491;-71
2023/01/16 11:26:30;;;;;;;2.03;1.40;;;;;;;7.20;60.75;98776.59;6183177;23;20399;-69
2023/01/16 11:29:02;;;;;;;4.03;1.75;;;;;;;7.37;60.55;98777.53;6184810;23;20181;-71
2023/01/16 11:31:32;;;;;;;3.72;1.73;;;;;;;7.52;60.16;98773.56;6183157;23;20185;-71
2023/01/16 11:34:04;;;;;;;3.10;2.05;;;;;;;7.53;60.02;98759.88;6183350;23;20181;-71
2023/01/16 11:36:36;;;;;;;2.75;1.38;;;;;;;7.61;59.06;98756.00;6182931;23;20185;-72
2023/01/16 11:39:07;;;;;;;3.00;1.40;;;;;;;7.57;58.97;98742.22;6185096;23;20150;-71
2023/01/16 11:41:38;;;;;;;2.60;1.90;;;;;;;7.63;58.42;98727.00;6183683;23;20216;-71
2023/01/16 11:47:03;;;;;;;3.60;1.50;;;;;;;7.68;58.71;98719.88;6185788;23;20573;-72
2023/01/16 11:49:36;;;;;;;2.55;1.20;;;;;;;7.66;58.06;98713.88;6187320;23;20177;-72
2023/01/16 11:52:06;;;;;;;3.92;1.10;;;;;;;7.77;58.02;98709.53;6187414;23;20196;-73
2023/01/16 11:54:36;;;;;;;4.95;1.30;;;;;;;7.65;57.14;98708.75;6187614;23;20174;-71
2023/01/16 11:57:31;;;;;;;3.05;1.35;;;;;;;7.61;57.52;98696.78;6186082;23;20165;-72
2023/01/16 12:00:30;;;;;;;3.70;1.25;;;;;;;7.76;57.37;98700.66;6185245;23;20166;-72
2023/01/16 12:03:23;;;;;;;1.42;1.00;;;;;;;7.79;56.68;98686.69;6185087;23;20170;-72
2023/01/16 12:06:03;;;;;;;2.58;1.30;;;;;;;7.82;56.26;98669.25;6185113;23;20193;-72
2023/01/16 12:08:56;;;;;;;3.63;1.45;;;;;;;7.79;56.26;98680.53;6184737;23;20192;-73
2023/01/16 12:11:38;;;;;;;6.50;1.55;;;;;;;7.90;56.28;98663.50;6185946;23;20166;-72
2023/01/16 12:14:18;;;;;;;3.50;1.40;;;;;;;7.96;56.22;98650.97;6186435;23;20174;-71
2023/01/16 12:17:02;;;;;;;2.42;1.20;;;;;;;7.97;55.46;98652.59;6185867;23;20185;-72
2023/01/16 12:19:55;;;;;;;2.70;1.15;;;;;;;7.92;55.36;98645.25;6188087;23;20196;-70
2023/01/16 12:22:36;;;;;;;5.38;1.90;;;;;;;7.98;54.88;98648.84;6184875;23;20181;-73
2023/01/16 12:25:20;;;;;;;3.35;1.13;;;;;;;7.80;54.43;98647.13;6185434;23;20185;-72
2023/01/16 12:28:03;;;;;;;6.18;2.00;;;;;;;7.96;54.60;98632.94;6185281;23;20269;-73
2023/01/16 12:30:47;;;;;;;2.10;1.33;;;;;;;7.86;54.25;98630.03;6185707;23;20162;-72
2023/01/16 12:33:27;;;;;;;6.25;2.33;;;;;;;7.84;54.16;98618.69;6185592;23;20172;-72
2023/01/16 12:36:04;;;;;;;4.70;1.30;;;;;;;8.03;54.18;98613.94;6184888;23;20688;-72
2023/01/16 12:38:38;;;;;;;1.85;1.08;;;;;;;8.08;54.15;98612.16;6184376;23;20158;-73
2023/01/16 12:44:25;;;;;;;5.15;1.30;;;;;;;7.94;53.92;98589.25;6184470;23;20169;-71
2023/01/16 12:47:11;;;;;;;1.95;1.20;;;;;;;7.97;54.11;98569.94;6185227;23;20191;-72
2023/01/16 12:49:53;;;;;;;3.13;1.50;;;;;;;8.16;54.23;98571.38;6187964;23;20189;-71
2023/01/16 12:52:46;;;;;;;2.50;1.70;;;;;;;8.12;54.69;98567.53;6185409;23;20175;-71
2023/01/16 12:55:35;;;;;;;6.15;1.33;;;;;;;8.19;54.35;98559.28;6184236;23;20195;-71
2023/01/16 12:58:19;;;;;;;5.95;3.80;;;;;;;8.37;54.76;98544.81;6183812;23;20189;-72
2023/01/16 13:01:07;;;;;;;4.65;2.00;;;;;;;8.39;54.47;98535.41;6184333;23;20168;-71